メインページ
METAR-TAF:

METAR-TAF

空港 :

Alpena, ミシガン州, アメリカ合衆国

緯度: 45-04-18N, 経度: 083-33-52W, 海抜: 210m

現時点の気象観測

当レポートは1時間1分前の19:54(UTC)に作成
西/北西の風 5kt
気温 -6°C
湿度 45%
気圧 1034 hPa
視程: 16.1km
高度4700ftの雲は散在している

METAR: KAPN 201954Z 29005KT 10SM SCT047 M06/M16 A3052 RMK AO2 SLP350 T10561161

時間: 15:55 (20:55 UTC)

予報

当レポートは3時間15分前の17:40(UTC)に作成
予報は20日の 18時(UTC)から 21日の 18時(UTC)まで有効
北西の風 8kt、最大16ktの突風を伴う
視程: 10km
高度3500ftの雲は散在している
20日の 2000時(UTC)から
西の風 7kt
視程: 10km
高度3500ftの雲は散在している
21日の 0100時(UTC)から
西/南西の風 7kt
視程: 10km
晴天
21日の 1500時(UTC)から
南西の風 12kt、最大19ktの突風を伴う
視程: 10km
高度25000ftの雲はほとんどない

TAF: KAPN 201740Z 2018/2118 31008G16KT P6SM SCT035 FM202000 28007KT P6SM SCT035 FM210100 25007KT P6SM SKC FM211500 23012G19KT P6SM FEW250

4,000以上の空港の気象観測と天気予報(METAR報とTAF報)

利用可能な観測所は地図上に黄色い丸と赤い丸で示す。

丸の上にカーソルを重ねると観測所名を参照できる。

次にクリックすると気象観測と天気予報を参照できる。

マップの切り替え:黒色「×」印の緑ボタンをクリックして拡大、「-」印の緑ボタンをクリックして縮小、緑色の三角印をクリックして隣りの地図に切り替え


METAR-TAF: